createdAt,value
2022-11-10T00:00:12.386Z,8.70
2022-11-10T00:01:12.377Z,8.73
2022-11-10T00:02:12.373Z,8.70
2022-11-10T00:03:12.363Z,8.77
2022-11-10T00:04:12.478Z,8.70
2022-11-10T00:05:12.345Z,8.69
2022-11-10T00:06:12.330Z,8.66
2022-11-10T00:07:12.351Z,8.64
2022-11-10T00:08:12.319Z,8.51
2022-11-10T00:09:12.340Z,8.51
2022-11-10T00:10:12.311Z,8.42
2022-11-10T00:11:12.294Z,8.49
2022-11-10T00:12:12.287Z,8.47
2022-11-10T00:13:12.276Z,8.44
2022-11-10T00:14:12.296Z,8.41
2022-11-10T00:15:12.260Z,8.41
2022-11-10T00:16:12.262Z,8.30
2022-11-10T00:17:12.249Z,8.38
2022-11-10T00:18:12.239Z,8.44
2022-11-10T00:19:12.257Z,8.44
2022-11-10T00:20:12.220Z,8.48
2022-11-10T00:21:12.234Z,8.54
2022-11-10T00:22:12.202Z,8.42
2022-11-10T00:23:12.193Z,8.47
2022-11-10T00:24:12.219Z,8.42
2022-11-10T00:25:12.185Z,8.49
2022-11-10T00:26:12.184Z,8.51
2022-11-10T00:27:12.166Z,8.36
2022-11-10T00:28:12.153Z,8.31
2022-11-10T00:29:12.184Z,8.30
2022-11-10T00:30:12.162Z,8.36
2022-11-10T00:31:12.125Z,8.24
2022-11-10T00:32:12.124Z,8.23
2022-11-10T00:33:12.109Z,8.26
2022-11-10T00:34:12.142Z,8.24
2022-11-10T00:35:12.092Z,8.30
2022-11-10T00:36:12.097Z,8.34
2022-11-10T00:37:12.084Z,8.26
2022-11-10T00:38:12.075Z,8.30
2022-11-10T00:39:12.059Z,8.29
2022-11-10T00:40:12.077Z,8.30
2022-11-10T00:41:12.043Z,8.30
2022-11-10T00:42:12.036Z,8.39
2022-11-10T00:43:12.032Z,8.36
2022-11-10T00:44:12.016Z,8.31
2022-11-10T00:45:12.042Z,8.39
2022-11-10T00:46:12.004Z,8.34
2022-11-10T00:47:11.989Z,8.33
2022-11-10T00:48:11.980Z,8.30
2022-11-10T00:49:11.983Z,8.30
2022-11-10T00:50:11.997Z,8.30
2022-11-10T00:51:11.958Z,8.27
2022-11-10T00:52:11.948Z,8.27
2022-11-10T00:53:11.951Z,8.24
2022-11-10T00:54:11.931Z,8.23
2022-11-10T00:55:12.949Z,8.18
2022-11-10T00:56:11.919Z,8.09
2022-11-10T00:57:11.940Z,8.12
2022-11-10T00:58:11.900Z,8.13
2022-11-10T00:59:11.889Z,8.11
2022-11-10T01:00:11.884Z,8.01
2022-11-10T01:01:11.894Z,8.11
2022-11-10T01:02:11.897Z,8.12
2022-11-10T01:03:11.853Z,8.15
2022-11-10T01:04:11.856Z,8.05
2022-11-10T01:05:11.843Z,8.15
2022-11-10T01:06:11.844Z,8.04
2022-11-10T01:07:12.099Z,8.05
2022-11-10T01:08:11.817Z,8.02
2022-11-10T01:09:11.827Z,8.01
2022-11-10T01:10:11.804Z,8.06
2022-11-10T01:11:11.786Z,7.87
2022-11-10T01:12:12.026Z,8.04
2022-11-10T01:13:11.782Z,7.97
2022-11-10T01:14:11.775Z,8.04
2022-11-10T01:15:11.757Z,7.93
2022-11-10T01:16:11.744Z,7.98
2022-11-10T01:17:12.057Z,7.93
2022-11-10T01:18:11.735Z,7.98
2022-11-10T01:19:11.729Z,7.91
2022-11-10T01:20:11.712Z,7.98
2022-11-10T01:21:11.695Z,7.88
2022-11-10T01:22:12.724Z,7.94
2022-11-10T01:23:11.689Z,7.94
2022-11-10T01:24:11.680Z,7.96
2022-11-10T01:25:11.688Z,7.88
2022-11-10T01:26:11.670Z,7.87
2022-11-10T01:27:11.682Z,7.93
2022-11-10T01:28:11.647Z,7.86
2022-11-10T01:29:11.641Z,7.86
2022-11-10T01:30:11.653Z,7.83
2022-11-10T01:31:11.635Z,7.76
2022-11-10T01:32:11.635Z,7.76
2022-11-10T01:33:12.608Z,7.80
2022-11-10T01:34:11.596Z,7.75
2022-11-10T01:35:11.605Z,7.76
2022-11-10T01:36:11.587Z,7.75
2022-11-10T01:37:11.617Z,7.79
2022-11-10T01:38:12.565Z,7.75
2022-11-10T01:39:11.555Z,7.64
2022-11-10T01:40:11.600Z,7.68
2022-11-10T01:41:11.549Z,7.75
2022-11-10T01:42:11.589Z,7.73
2022-11-10T01:43:11.525Z,7.72
2022-11-10T01:44:11.527Z,7.59
2022-11-10T01:45:11.506Z,7.68
2022-11-10T01:46:11.504Z,7.66
2022-11-10T01:47:11.761Z,7.78
2022-11-10T01:48:11.492Z,7.70
2022-11-10T01:49:11.477Z,7.53
2022-11-10T01:50:11.466Z,7.64
2022-11-10T01:51:11.460Z,7.54
2022-11-10T01:52:11.489Z,7.56
2022-11-10T01:53:11.446Z,7.54
2022-11-10T01:54:11.428Z,7.62
2022-11-10T01:55:11.423Z,7.57
2022-11-10T01:56:11.424Z,7.56
2022-11-10T01:57:11.439Z,7.50
2022-11-10T01:58:11.402Z,7.50
2022-11-10T01:59:11.413Z,7.44
2022-11-10T02:00:11.382Z,7.39
2022-11-10T02:01:11.422Z,7.41
2022-11-10T02:02:11.401Z,7.41
2022-11-10T02:03:11.356Z,7.52
2022-11-10T02:04:11.362Z,7.56
2022-11-10T02:05:11.347Z,7.54
2022-11-10T02:06:11.336Z,7.62
2022-11-10T02:07:11.412Z,7.54
2022-11-10T02:08:11.319Z,7.56
2022-11-10T02:09:11.309Z,7.53
2022-11-10T02:10:11.307Z,7.62
2022-11-10T02:11:11.293Z,7.57
2022-11-10T02:12:11.322Z,7.57
2022-11-10T02:13:11.271Z,7.54
2022-11-10T02:14:11.274Z,7.53
2022-11-10T02:15:11.260Z,7.46
2022-11-10T02:16:11.256Z,7.34
2022-11-10T02:17:11.272Z,7.29
2022-11-10T02:18:11.239Z,7.11
2022-11-10T02:19:11.228Z,7.13
2022-11-10T02:20:11.224Z,7.17
2022-11-10T02:21:11.219Z,7.17
2022-11-10T02:22:11.237Z,7.17
2022-11-10T02:23:11.193Z,7.07
2022-11-10T02:24:11.184Z,7.11
2022-11-10T02:25:11.190Z,6.93
2022-11-10T02:26:11.162Z,6.96
2022-11-10T02:27:11.198Z,6.83
2022-11-10T02:28:11.152Z,6.89
2022-11-10T02:29:11.140Z,6.78
2022-11-10T02:30:11.144Z,6.80
2022-11-10T02:31:11.153Z,6.73
2022-11-10T02:32:11.154Z,6.80
2022-11-10T02:33:12.105Z,6.80
2022-11-10T02:34:11.106Z,6.74
2022-11-10T02:35:11.088Z,6.77
2022-11-10T02:36:11.094Z,6.75
2022-11-10T02:37:11.100Z,6.66
2022-11-10T02:38:11.067Z,6.60
2022-11-10T02:39:11.079Z,6.71
2022-11-10T02:40:11.047Z,6.71
2022-11-10T02:41:11.044Z,6.66
2022-11-10T02:42:11.070Z,6.60
2022-11-10T02:43:11.030Z,6.53
2022-11-10T02:44:11.015Z,6.62
2022-11-10T02:45:11.013Z,6.59
2022-11-10T02:46:10.997Z,6.55
2022-11-10T02:47:11.040Z,6.60
2022-11-10T02:48:10.989Z,6.67
2022-11-10T02:49:10.983Z,6.57
2022-11-10T02:50:10.983Z,6.73
2022-11-10T02:51:10.957Z,6.74
2022-11-10T02:52:10.986Z,6.77
2022-11-10T02:53:10.946Z,6.85
2022-11-10T02:54:10.939Z,6.96
2022-11-10T02:55:10.932Z,7.05
2022-11-10T02:56:10.916Z,7.28
2022-11-10T02:57:10.937Z,7.08
2022-11-10T02:58:10.911Z,7.26
2022-11-10T02:59:10.897Z,7.26
2022-11-10T03:00:10.886Z,7.36
2022-11-10T03:01:10.929Z,7.28
2022-11-10T03:02:10.902Z,7.28
2022-11-10T03:03:10.876Z,7.20
2022-11-10T03:04:10.852Z,7.18
2022-11-10T03:05:10.857Z,7.26
2022-11-10T03:06:10.836Z,7.13
2022-11-10T03:07:10.914Z,7.14
2022-11-10T03:08:10.819Z,7.10
2022-11-10T03:09:10.816Z,7.17
2022-11-10T03:10:10.811Z,7.10
2022-11-10T03:11:10.804Z,7.10
2022-11-10T03:12:10.842Z,6.99
2022-11-10T03:13:10.783Z,7.10
2022-11-10T03:14:10.772Z,7.00
2022-11-10T03:15:10.774Z,7.11
2022-11-10T03:16:10.752Z,7.14
2022-11-10T03:17:10.742Z,7.14
2022-11-10T03:18:10.799Z,7.18
2022-11-10T03:19:10.738Z,7.21
2022-11-10T03:20:10.729Z,7.16
2022-11-10T03:21:10.715Z,7.23
2022-11-10T03:22:10.714Z,7.10
2022-11-10T03:23:10.729Z,7.11
2022-11-10T03:24:10.687Z,7.07
2022-11-10T03:25:10.685Z,7.03
2022-11-10T03:26:10.675Z,7.08
2022-11-10T03:27:10.664Z,7.13
2022-11-10T03:28:10.690Z,7.07
2022-11-10T03:29:10.667Z,7.05
2022-11-10T03:30:10.654Z,7.16
2022-11-10T03:31:10.641Z,7.13
2022-11-10T03:32:10.626Z,7.13
2022-11-10T03:33:10.645Z,7.18
2022-11-10T03:34:10.615Z,7.17
2022-11-10T03:35:10.604Z,7.17
2022-11-10T03:36:10.596Z,7.18
2022-11-10T03:37:10.594Z,7.18
2022-11-10T03:38:10.616Z,7.18
2022-11-10T03:39:10.582Z,7.11
2022-11-10T03:40:10.579Z,7.07
2022-11-10T03:41:19.787Z,7.14
2022-11-10T03:42:12.553Z,7.17
2022-11-10T03:43:10.573Z,7.11
2022-11-10T03:44:10.533Z,7.07
2022-11-10T03:45:10.528Z,7.08
2022-11-10T03:46:10.532Z,7.16
2022-11-10T03:47:10.516Z,7.20
2022-11-10T03:48:10.540Z,7.18
2022-11-10T03:49:10.494Z,7.20
2022-11-10T03:50:10.489Z,7.17
2022-11-10T03:51:10.479Z,7.25
2022-11-10T03:52:10.476Z,7.25
2022-11-10T03:53:10.518Z,7.38
2022-11-10T03:54:10.454Z,7.49
2022-11-10T03:55:10.437Z,7.59
2022-11-10T03:56:10.439Z,7.66
2022-11-10T03:57:10.445Z,7.75
2022-11-10T03:58:10.450Z,7.76
2022-11-10T03:59:10.409Z,7.84
2022-11-10T04:00:10.403Z,7.84
2022-11-10T04:01:10.402Z,7.80
2022-11-10T04:02:10.459Z,7.70
2022-11-10T04:03:10.413Z,7.69
2022-11-10T04:04:10.372Z,7.54
2022-11-10T04:05:10.361Z,7.49
2022-11-10T04:06:10.373Z,7.60
2022-11-10T04:07:10.376Z,7.46
2022-11-10T04:08:10.367Z,7.59
2022-11-10T04:09:10.329Z,7.59
2022-11-10T04:10:10.328Z,7.62
2022-11-10T04:11:10.315Z,7.68
2022-11-10T04:12:10.313Z,7.70
2022-11-10T04:13:10.360Z,7.75
2022-11-10T04:14:10.283Z,7.80
2022-11-10T04:15:10.289Z,7.86
2022-11-10T04:16:10.301Z,7.87
2022-11-10T04:17:10.263Z,7.98
2022-11-10T04:18:10.290Z,7.91
2022-11-10T04:19:10.247Z,7.88
2022-11-10T04:20:10.255Z,7.90
2022-11-10T04:21:10.242Z,7.96
2022-11-10T04:22:10.219Z,7.90
2022-11-10T04:23:10.261Z,7.93
2022-11-10T04:24:10.213Z,8.05
2022-11-10T04:25:10.206Z,8.04
2022-11-10T04:26:10.195Z,8.04
2022-11-10T04:27:10.187Z,7.97
2022-11-10T04:28:10.205Z,7.96
2022-11-10T04:29:10.165Z,7.79
2022-11-10T04:30:10.189Z,7.80
2022-11-10T04:31:10.158Z,7.83
2022-11-10T04:32:10.152Z,7.80
2022-11-10T04:33:10.169Z,7.72
2022-11-10T04:34:10.136Z,7.69
2022-11-10T04:35:10.123Z,7.64
2022-11-10T04:36:10.109Z,7.66
2022-11-10T04:37:10.097Z,7.66
2022-11-10T04:38:10.137Z,7.62
2022-11-10T04:39:10.082Z,7.69
2022-11-10T04:40:10.072Z,7.64
2022-11-10T04:41:10.069Z,7.59
2022-11-10T04:42:10.054Z,7.50
2022-11-10T04:43:10.075Z,7.53
2022-11-10T04:44:10.049Z,7.60
2022-11-10T04:45:10.036Z,7.52
2022-11-10T04:46:10.026Z,7.56
2022-11-10T04:47:11.993Z,7.53
2022-11-10T04:48:11.053Z,7.54
2022-11-10T04:49:10.005Z,7.52
2022-11-10T04:50:09.992Z,7.46
2022-11-10T04:51:10.039Z,7.53
2022-11-10T04:52:09.989Z,7.50
2022-11-10T04:53:10.018Z,7.42
2022-11-10T04:54:09.966Z,7.44
2022-11-10T04:55:09.945Z,7.46
2022-11-10T04:56:09.952Z,7.49
2022-11-10T04:57:09.939Z,7.54
2022-11-10T04:58:09.938Z,7.56
2022-11-10T04:59:09.953Z,7.53
2022-11-10T05:00:09.898Z,7.60
2022-11-10T05:01:10.929Z,7.60
2022-11-10T05:02:09.892Z,7.56
2022-11-10T05:03:09.889Z,7.70
2022-11-10T05:04:09.913Z,7.68
2022-11-10T05:05:09.888Z,7.73
2022-11-10T05:06:09.863Z,7.84
2022-11-10T05:07:09.902Z,7.97
2022-11-10T05:08:09.862Z,8.01
2022-11-10T05:09:09.865Z,7.78
2022-11-10T05:10:09.829Z,7.88
2022-11-10T05:11:09.824Z,7.87
2022-11-10T05:12:09.815Z,7.93
2022-11-10T05:13:09.836Z,7.90
2022-11-10T05:14:09.802Z,8.04
2022-11-10T05:15:09.793Z,7.98
2022-11-10T05:16:09.784Z,7.98
2022-11-10T05:17:09.768Z,7.98
2022-11-10T05:18:09.793Z,7.88
2022-11-10T05:19:09.757Z,7.86
2022-11-10T05:20:09.747Z,8.02
2022-11-10T05:21:09.737Z,8.06
2022-11-10T05:22:09.732Z,8.15
2022-11-10T05:23:09.758Z,8.01
2022-11-10T05:24:09.711Z,8.06
2022-11-10T05:25:09.702Z,8.09
2022-11-10T05:26:09.704Z,8.09
2022-11-10T05:27:09.699Z,8.12
2022-11-10T05:28:09.720Z,8.13
2022-11-10T05:29:09.668Z,8.15
2022-11-10T05:30:09.663Z,8.12
2022-11-10T05:31:09.683Z,8.13
2022-11-10T05:32:09.648Z,8.15
2022-11-10T05:33:09.635Z,8.16
2022-11-10T05:34:09.659Z,8.13
2022-11-10T05:35:09.628Z,8.09
2022-11-10T05:36:09.616Z,8.11
2022-11-10T05:37:09.643Z,8.06
2022-11-10T05:38:09.616Z,8.12
2022-11-10T05:39:09.616Z,8.12
2022-11-10T05:40:09.584Z,8.09
2022-11-10T05:41:09.588Z,8.08
2022-11-10T05:42:09.560Z,8.13
2022-11-10T05:43:09.566Z,8.20
2022-11-10T05:44:09.573Z,8.18
2022-11-10T05:45:09.533Z,8.11
2022-11-10T05:46:09.528Z,8.15
2022-11-10T05:47:10.541Z,8.16
2022-11-10T05:48:09.514Z,8.11
2022-11-10T05:49:09.545Z,8.18
2022-11-10T05:50:09.509Z,8.12
2022-11-10T05:51:09.517Z,8.16
2022-11-10T05:52:09.496Z,8.13
2022-11-10T05:53:09.480Z,8.24
2022-11-10T05:54:09.493Z,8.16
2022-11-10T05:55:09.456Z,8.13
2022-11-10T05:56:09.451Z,8.12
2022-11-10T05:57:09.462Z,8.12
2022-11-10T05:58:09.447Z,8.01
2022-11-10T05:59:09.456Z,7.96
2022-11-10T06:00:09.419Z,8.02
2022-11-10T06:01:09.419Z,7.97
2022-11-10T06:02:09.402Z,7.96
2022-11-10T06:03:09.431Z,7.90
2022-11-10T06:04:09.414Z,7.83
2022-11-10T06:05:09.376Z,7.86
2022-11-10T06:06:09.374Z,7.84
2022-11-10T06:07:09.402Z,7.78
2022-11-10T06:08:09.356Z,7.79
2022-11-10T06:09:10.378Z,7.84
2022-11-10T06:10:09.338Z,7.91
2022-11-10T06:11:09.343Z,7.76
2022-11-10T06:12:09.332Z,7.75
2022-11-10T06:13:09.316Z,7.66
2022-11-10T06:14:09.331Z,7.79
2022-11-10T06:15:09.306Z,7.78
2022-11-10T06:16:09.292Z,7.75
2022-11-10T06:17:09.282Z,7.69
2022-11-10T06:18:09.281Z,7.60
2022-11-10T06:19:09.294Z,7.73
2022-11-10T06:20:09.259Z,7.60
2022-11-10T06:21:09.248Z,7.68
2022-11-10T06:22:09.272Z,7.57
2022-11-10T06:23:09.229Z,7.56
2022-11-10T06:24:09.253Z,7.70
2022-11-10T06:25:09.216Z,7.66
2022-11-10T06:26:09.236Z,7.70
2022-11-10T06:27:10.208Z,7.70
2022-11-10T06:28:09.196Z,7.76
2022-11-10T06:29:09.278Z,7.86
2022-11-10T06:30:09.174Z,7.86
2022-11-10T06:31:09.168Z,7.84
2022-11-10T06:32:09.164Z,7.83
2022-11-10T06:33:09.148Z,7.93
2022-11-10T06:34:09.176Z,7.93
2022-11-10T06:35:09.135Z,8.04
2022-11-10T06:36:09.171Z,7.97
2022-11-10T06:37:09.123Z,7.91
2022-11-10T06:38:09.114Z,7.98
2022-11-10T06:39:09.140Z,7.98
2022-11-10T06:40:09.098Z,8.02
2022-11-10T06:41:09.084Z,7.98
2022-11-10T06:42:09.082Z,7.94
2022-11-10T06:43:09.077Z,8.06
2022-11-10T06:44:09.108Z,8.05
2022-11-10T06:45:09.055Z,8.05
2022-11-10T06:46:09.040Z,8.12
2022-11-10T06:47:09.042Z,8.11
2022-11-10T06:48:09.031Z,8.11
2022-11-10T06:49:09.054Z,8.15
2022-11-10T06:50:09.007Z,8.20
2022-11-10T06:51:09.016Z,8.26
2022-11-10T06:52:09.001Z,8.23
2022-11-10T06:53:08.985Z,8.23
2022-11-10T06:54:08.985Z,8.18
2022-11-10T06:55:09.010Z,8.29
2022-11-10T06:56:08.971Z,8.38
2022-11-10T06:57:08.977Z,8.36
2022-11-10T06:58:08.940Z,8.38
2022-11-10T06:59:08.939Z,8.36
2022-11-10T07:00:08.969Z,8.33
2022-11-10T07:01:08.949Z,8.30
2022-11-10T07:02:08.917Z,8.44
2022-11-10T07:03:08.909Z,8.34
2022-11-10T07:04:24.342Z,8.42
2022-11-10T07:05:10.920Z,8.42
2022-11-10T07:06:08.880Z,8.44
2022-11-10T07:07:08.948Z,8.45
2022-11-10T07:08:08.867Z,8.59
2022-11-10T07:09:08.848Z,8.66
2022-11-10T07:10:08.878Z,8.63
2022-11-10T07:11:08.837Z,8.64
2022-11-10T07:12:08.823Z,8.73
2022-11-10T07:13:08.822Z,8.78
2022-11-10T07:14:08.818Z,8.72
2022-11-10T07:15:08.843Z,8.90
2022-11-10T07:16:08.799Z,8.90
2022-11-10T07:17:08.794Z,8.81
2022-11-10T07:18:08.788Z,8.91
2022-11-10T07:19:08.773Z,8.84
2022-11-10T07:20:08.800Z,8.88
2022-11-10T07:21:08.767Z,8.88
2022-11-10T07:22:11.211Z,8.81
2022-11-10T07:23:09.748Z,8.84
2022-11-10T07:24:08.730Z,9.05
2022-11-10T07:25:08.755Z,8.98
2022-11-10T07:26:08.711Z,9.00
2022-11-10T07:27:08.700Z,9.02
2022-11-10T07:28:08.710Z,9.10
2022-11-10T07:29:08.684Z,9.05
2022-11-10T07:30:08.784Z,9.16
2022-11-10T07:31:08.673Z,9.19
2022-11-10T07:32:08.669Z,9.18
2022-11-10T07:33:08.658Z,9.16
2022-11-10T07:34:08.660Z,9.32
2022-11-10T07:35:08.684Z,9.33
2022-11-10T07:36:08.633Z,9.46
2022-11-10T07:37:08.624Z,9.44
2022-11-10T07:38:08.617Z,9.57
2022-11-10T07:39:08.625Z,9.62
2022-11-10T07:40:08.633Z,9.67
2022-11-10T07:41:08.588Z,9.67
2022-11-10T07:42:08.583Z,9.67
2022-11-10T07:43:09.571Z,9.62
2022-11-10T07:44:08.576Z,9.70
2022-11-10T07:45:08.586Z,9.65
2022-11-10T07:46:08.560Z,9.72
2022-11-10T07:47:08.546Z,9.69
2022-11-10T07:48:08.526Z,9.75
2022-11-10T07:49:08.532Z,9.67
2022-11-10T07:50:08.545Z,9.86
2022-11-10T07:51:08.519Z,9.72
2022-11-10T07:52:08.487Z,9.72
2022-11-10T07:53:09.490Z,9.72
2022-11-10T07:54:08.475Z,9.72
2022-11-10T07:55:08.522Z,9.70
2022-11-10T07:56:08.463Z,9.80
2022-11-10T07:57:08.468Z,10.08
2022-11-10T07:58:08.459Z,11.07
2022-11-10T07:59:09.440Z,11.71
2022-11-10T08:00:08.455Z,12.09
2022-11-10T08:01:08.436Z,12.68
2022-11-10T08:02:08.501Z,13.06
2022-11-10T08:03:08.397Z,13.08
2022-11-10T08:04:08.395Z,13.21
2022-11-10T08:05:08.515Z,13.35
2022-11-10T08:06:08.379Z,13.64
2022-11-10T08:07:08.563Z,13.72
2022-11-10T08:08:08.375Z,13.74
2022-11-10T08:09:08.352Z,13.37
2022-11-10T08:10:08.381Z,13.43
2022-11-10T08:11:08.338Z,13.75
2022-11-10T08:12:08.332Z,13.67
2022-11-10T08:13:08.314Z,13.74
2022-11-10T08:14:08.320Z,13.57
2022-11-10T08:15:08.338Z,13.12
2022-11-10T08:16:08.295Z,13.08
2022-11-10T08:17:08.288Z,13.00
2022-11-10T08:18:08.283Z,12.80
2022-11-10T08:19:08.276Z,12.68
2022-11-10T08:20:08.263Z,12.68
2022-11-10T08:21:08.287Z,12.53
2022-11-10T08:22:08.252Z,13.19
2022-11-10T08:23:08.238Z,13.06
2022-11-10T08:24:08.571Z,12.98
2022-11-10T08:25:09.222Z,12.80
2022-11-10T08:26:08.275Z,12.60
2022-11-10T08:27:09.207Z,12.40
2022-11-10T08:28:08.196Z,12.13
2022-11-10T08:29:08.194Z,12.06
2022-11-10T08:30:08.188Z,11.95
2022-11-10T08:31:08.207Z,11.66
2022-11-10T08:32:08.159Z,11.65
2022-11-10T08:33:08.154Z,11.83
2022-11-10T08:34:08.147Z,11.76
2022-11-10T08:35:08.135Z,11.79
2022-11-10T08:36:08.148Z,11.80
2022-11-10T08:37:09.123Z,11.74
2022-11-10T08:38:09.428Z,11.99
2022-11-10T08:39:09.108Z,12.03
2022-11-10T08:40:08.103Z,11.88
2022-11-10T08:41:08.119Z,11.90
2022-11-10T08:42:08.077Z,12.05
2022-11-10T08:43:08.070Z,12.65
2022-11-10T08:44:10.876Z,13.22
2022-11-10T08:45:09.058Z,13.74
2022-11-10T08:46:08.079Z,14.40
2022-11-10T08:47:08.032Z,14.03
2022-11-10T08:48:08.033Z,13.80
2022-11-10T08:49:09.025Z,13.67
2022-11-10T08:50:08.014Z,13.45
2022-11-10T08:51:08.037Z,13.18
2022-11-10T08:52:07.995Z,12.98
2022-11-10T08:53:07.996Z,12.51
2022-11-10T08:54:07.990Z,12.51
2022-11-10T08:55:07.958Z,12.51
2022-11-10T08:56:08.008Z,12.69
2022-11-10T08:57:07.953Z,12.63
2022-11-10T08:58:07.951Z,12.64
2022-11-10T08:59:07.936Z,12.53
2022-11-10T09:00:07.937Z,12.61
2022-11-10T09:01:07.963Z,12.45
2022-11-10T09:02:07.913Z,12.32
2022-11-10T09:03:07.910Z,12.57
2022-11-10T09:04:07.982Z,12.83
2022-11-10T09:05:07.894Z,12.98
2022-11-10T09:06:07.926Z,13.21
2022-11-10T09:07:07.912Z,13.22
2022-11-10T09:08:07.866Z,13.37
2022-11-10T09:09:07.868Z,14.43
2022-11-10T09:10:08.260Z,15.76
2022-11-10T09:11:07.882Z,16.61
2022-11-10T09:12:07.845Z,16.34
2022-11-10T09:13:07.832Z,16.47
2022-11-10T09:14:07.826Z,16.96
2022-11-10T09:15:07.802Z,17.23
2022-11-10T09:16:08.837Z,17.20
2022-11-10T09:17:07.793Z,16.98
2022-11-10T09:18:07.801Z,16.66
2022-11-10T09:19:07.791Z,16.74
2022-11-10T09:20:07.905Z,16.83
2022-11-10T09:21:07.796Z,16.13
2022-11-10T09:22:07.764Z,15.68
2022-11-10T09:23:07.752Z,15.46
2022-11-10T09:24:07.742Z,15.17
2022-11-10T09:25:07.735Z,14.68
2022-11-10T09:26:07.766Z,14.30
2022-11-10T09:27:07.720Z,13.72
2022-11-10T09:28:07.716Z,13.45
2022-11-10T09:29:07.698Z,13.21
2022-11-10T09:30:10.547Z,13.15
2022-11-10T09:31:08.678Z,13.22
2022-11-10T09:32:07.682Z,13.22
2022-11-10T09:33:07.692Z,13.22
2022-11-10T09:34:07.664Z,13.08
2022-11-10T09:35:07.683Z,13.18
2022-11-10T09:36:07.641Z,13.12
2022-11-10T09:37:07.629Z,13.11
2022-11-10T09:38:07.619Z,13.16
2022-11-10T09:39:07.618Z,13.24
2022-11-10T09:40:11.852Z,13.27
2022-11-10T09:41:09.592Z,13.12
2022-11-10T09:42:07.622Z,13.24
2022-11-10T09:43:07.578Z,13.08
2022-11-10T09:44:07.583Z,12.94
2022-11-10T09:45:07.564Z,12.82
2022-11-10T09:46:07.594Z,12.83
2022-11-10T09:47:07.551Z,12.83
2022-11-10T09:48:07.541Z,12.85
2022-11-10T09:49:07.538Z,12.87
2022-11-10T09:50:07.566Z,12.93
2022-11-10T09:51:07.535Z,13.12
2022-11-10T09:52:07.506Z,13.16
2022-11-10T09:53:07.506Z,13.21
2022-11-10T09:54:07.489Z,13.46
2022-11-10T09:55:08.520Z,13.82
2022-11-10T09:56:07.472Z,13.78
2022-11-10T09:57:07.611Z,14.22
2022-11-10T09:58:07.464Z,14.43
2022-11-10T09:59:07.462Z,14.41
2022-11-10T10:00:07.485Z,15.18
2022-11-10T10:01:07.454Z,15.40
2022-11-10T10:02:07.426Z,16.44
2022-11-10T10:03:07.417Z,17.17
2022-11-10T10:04:07.423Z,18.18
2022-11-10T10:05:07.448Z,17.01
2022-11-10T10:06:07.390Z,16.50
2022-11-10T10:07:11.758Z,17.20
2022-11-10T10:08:08.378Z,18.13
2022-11-10T10:09:07.368Z,18.48
2022-11-10T10:10:07.394Z,18.93
2022-11-10T10:11:07.343Z,19.26
2022-11-10T10:12:07.342Z,19.70
2022-11-10T10:13:07.331Z,19.91
2022-11-10T10:14:07.318Z,19.67
2022-11-10T10:15:07.346Z,19.30
2022-11-10T10:16:07.295Z,18.19
2022-11-10T10:17:08.301Z,17.26
2022-11-10T10:18:07.291Z,17.82
2022-11-10T10:19:07.281Z,17.27
2022-11-10T10:20:07.315Z,16.71
2022-11-10T10:21:07.268Z,16.26
2022-11-10T10:22:07.258Z,16.05
2022-11-10T10:23:07.251Z,15.87
2022-11-10T10:24:11.407Z,15.70
2022-11-10T10:25:09.262Z,16.02
2022-11-10T10:26:07.242Z,15.87
2022-11-10T10:27:07.234Z,15.77
2022-11-10T10:28:07.218Z,15.75
2022-11-10T10:29:07.200Z,15.91
2022-11-10T10:30:07.299Z,16.06
2022-11-10T10:31:07.192Z,15.87
2022-11-10T10:32:07.177Z,15.95
2022-11-10T10:33:07.172Z,16.71
2022-11-10T10:34:07.157Z,16.84
2022-11-10T10:35:07.200Z,16.10
2022-11-10T10:36:07.200Z,15.64
2022-11-10T10:37:07.136Z,16.08
2022-11-10T10:38:07.117Z,16.17
2022-11-10T10:39:07.113Z,16.00
2022-11-10T10:40:07.139Z,16.29
2022-11-10T10:41:07.107Z,16.82
2022-11-10T10:42:07.098Z,16.64
2022-11-10T10:43:07.083Z,16.36
2022-11-10T10:44:07.949Z,16.21
2022-11-10T10:45:07.135Z,15.94
2022-11-10T10:46:07.078Z,15.72
2022-11-10T10:47:07.051Z,15.36
2022-11-10T10:48:07.029Z,15.11
2022-11-10T10:49:27.387Z,14.99
2022-11-10T10:50:09.076Z,14.78
2022-11-10T10:51:07.018Z,14.81
2022-11-10T10:52:07.009Z,14.47
2022-11-10T10:53:06.998Z,14.53
2022-11-10T10:54:06.988Z,14.26
2022-11-10T10:55:07.028Z,14.14
2022-11-10T10:56:06.979Z,14.22
2022-11-10T10:57:06.973Z,14.07
2022-11-10T10:58:06.960Z,14.10
2022-11-10T10:59:06.950Z,14.03
2022-11-10T11:00:06.971Z,14.08
2022-11-10T11:01:06.962Z,14.04
2022-11-10T11:02:06.922Z,13.95
2022-11-10T11:03:06.925Z,14.04
2022-11-10T11:04:06.923Z,14.08
2022-11-10T11:05:06.936Z,14.26
2022-11-10T11:06:06.893Z,14.18
2022-11-10T11:07:06.902Z,14.05
2022-11-10T11:08:06.872Z,14.19
2022-11-10T11:09:06.865Z,14.01
2022-11-10T11:10:06.861Z,14.10
2022-11-10T11:11:06.880Z,13.95
2022-11-10T11:12:06.840Z,14.11
2022-11-10T11:13:06.834Z,14.53
2022-11-10T11:14:06.834Z,15.06
2022-11-10T11:15:06.842Z,15.51
2022-11-10T11:16:06.850Z,15.51
2022-11-10T11:17:06.864Z,15.46
2022-11-10T11:18:06.789Z,15.43
2022-11-10T11:19:06.784Z,15.37
2022-11-10T11:20:06.778Z,15.17
2022-11-10T11:21:06.794Z,14.99
2022-11-10T11:22:06.766Z,14.68
2022-11-10T11:23:06.755Z,14.56
2022-11-10T11:24:06.748Z,14.45
2022-11-10T11:25:06.745Z,14.40
2022-11-10T11:26:06.775Z,14.23
2022-11-10T11:27:06.719Z,14.29
2022-11-10T11:28:06.716Z,14.28
2022-11-10T11:29:06.706Z,13.97
2022-11-10T11:30:06.706Z,14.10
2022-11-10T11:31:06.947Z,14.03
2022-11-10T11:32:06.677Z,14.15
2022-11-10T11:33:06.684Z,14.53
2022-11-10T11:34:06.667Z,15.40
2022-11-10T11:35:06.668Z,15.82
2022-11-10T11:36:06.686Z,16.64
2022-11-10T11:37:10.538Z,16.86
2022-11-10T11:38:08.625Z,16.94
2022-11-10T11:39:06.621Z,17.80
2022-11-10T11:40:06.615Z,17.73
2022-11-10T11:41:06.633Z,17.75
2022-11-10T11:42:06.603Z,17.83
2022-11-10T11:43:06.586Z,17.85
2022-11-10T11:44:06.578Z,18.07
2022-11-10T11:45:06.573Z,18.18
2022-11-10T11:46:06.584Z,18.15
2022-11-10T11:47:06.547Z,17.63
2022-11-10T11:48:06.543Z,17.68
2022-11-10T11:49:06.540Z,18.74
2022-11-10T11:50:06.554Z,18.55
2022-11-10T11:51:06.547Z,19.14
2022-11-10T11:52:06.514Z,19.34
2022-11-10T11:53:06.502Z,19.41
2022-11-10T11:54:06.502Z,19.54
2022-11-10T11:55:06.487Z,19.30
2022-11-10T11:56:06.509Z,19.42
2022-11-10T11:57:06.463Z,19.73
2022-11-10T11:58:06.463Z,19.14
2022-11-10T11:59:06.449Z,18.41
2022-11-10T12:00:06.455Z,18.81
2022-11-10T12:01:06.470Z,19.67
2022-11-10T12:02:06.489Z,19.46
2022-11-10T12:03:06.473Z,19.99
2022-11-10T12:04:06.415Z,19.67
2022-11-10T12:05:06.418Z,19.74
2022-11-10T12:06:06.425Z,20.09
2022-11-10T12:07:06.413Z,19.45
2022-11-10T12:08:06.397Z,19.66
2022-11-10T12:09:06.367Z,19.66
2022-11-10T12:10:07.378Z,18.05
2022-11-10T12:11:06.390Z,17.88
2022-11-10T12:12:06.358Z,17.22
2022-11-10T12:13:06.340Z,17.04
2022-11-10T12:14:06.346Z,17.09
2022-11-10T12:15:06.349Z,17.94
2022-11-10T12:16:06.340Z,18.43
2022-11-10T12:17:06.312Z,18.50
2022-11-10T12:18:06.306Z,18.18
2022-11-10T12:19:06.293Z,17.54
2022-11-10T12:20:06.288Z,16.35
2022-11-10T12:21:06.313Z,15.90
2022-11-10T12:22:06.277Z,16.20
2022-11-10T12:23:06.271Z,17.26
2022-11-10T12:24:10.133Z,17.38
2022-11-10T12:25:07.252Z,18.26
2022-11-10T12:26:06.263Z,18.58
2022-11-10T12:27:07.230Z,18.04
2022-11-10T12:28:06.232Z,18.16
2022-11-10T12:29:06.215Z,18.62
2022-11-10T12:30:06.200Z,17.93
2022-11-10T12:31:06.227Z,18.03
2022-11-10T12:32:06.194Z,17.65
2022-11-10T12:33:06.195Z,17.24
2022-11-10T12:34:06.187Z,17.67
2022-11-10T12:35:06.172Z,17.48
2022-11-10T12:36:06.189Z,17.85
2022-11-10T12:37:06.154Z,17.95
2022-11-10T12:38:06.156Z,18.26
2022-11-10T12:39:06.142Z,18.25
2022-11-10T12:40:06.131Z,17.86
2022-11-10T12:41:06.162Z,17.93
2022-11-10T12:42:06.118Z,18.26
2022-11-10T12:43:06.110Z,17.94
2022-11-10T12:44:06.101Z,17.76
2022-11-10T12:45:06.086Z,17.49
2022-11-10T12:46:06.119Z,16.86
2022-11-10T12:47:06.070Z,15.87
2022-11-10T12:48:06.094Z,15.61
2022-11-10T12:49:06.073Z,15.09
2022-11-10T12:50:06.058Z,14.78
2022-11-10T12:51:06.075Z,15.48
2022-11-10T12:52:06.035Z,15.95
2022-11-10T12:53:06.020Z,16.41
2022-11-10T12:54:06.018Z,16.49
2022-11-10T12:55:06.017Z,17.17
2022-11-10T12:56:06.020Z,17.65
2022-11-10T12:57:05.999Z,17.33
2022-11-10T12:58:05.990Z,16.87
2022-11-10T12:59:05.980Z,16.79
2022-11-10T13:00:05.969Z,16.80
2022-11-10T13:01:06.024Z,16.86
2022-11-10T13:02:05.958Z,17.09
2022-11-10T13:03:05.953Z,17.65
2022-11-10T13:04:05.939Z,18.05
2022-11-10T13:05:05.940Z,17.83
2022-11-10T13:06:05.959Z,17.85
2022-11-10T13:07:11.847Z,17.63
2022-11-10T13:08:07.901Z,17.93